Time;durP1;ratioP1;P1;durP2;ratioP2;P2;SDS_P1;SDS_P2;PMS_P1;PMS_P2;Temp;Humidity;BMP_temperature;BMP_pressure;BME280_temperature;BME280_humidity;BME280_pressure;Samples;Min_cycle;Max_cycle;Signal;HPM_P1;HPM_P2
2022/09/04 00:00:20;;;;;;;2.83;0.60;;;;;;;;;;4996091;28;20478;-75
2022/09/04 00:02:50;;;;;;;3.10;0.50;;;;;;;;;;4995879;28;20108;-74
2022/09/04 00:05:17;;;;;;;2.42;0.47;;;;;;;;;;4995686;28;20042;-74
2022/09/04 00:08:02;;;;;;;2.88;0.47;;;;;;;;;;4995703;28;20026;-74
2022/09/04 00:10:39;;;;;;;5.20;0.70;;;;;;;;;;4993322;28;20501;-75
2022/09/04 00:13:12;;;;;;;4.30;0.52;;;;;;;;;;4994528;28;20100;-74
2022/09/04 00:15:49;;;;;;;3.15;0.88;;;;;;;;;;4993620;28;20053;-75
2022/09/04 00:18:46;;;;;;;3.30;0.40;;;;;;;;;;4995688;28;20026;-75
2022/09/04 00:21:31;;;;;;;3.88;0.63;;;;;;;;;;4990895;28;20121;-75
2022/09/04 00:23:59;;;;;;;5.18;0.73;;;;;;;;;;4994235;28;20032;-75
2022/09/04 00:26:39;;;;;;;6.32;1.17;;;;;;;;;;4995483;28;20026;-75
2022/09/04 00:29:19;;;;;;;5.38;1.05;;;;;;;;;;4993570;28;20482;-78
2022/09/04 00:31:49;;;;;;;3.40;0.50;;;;;;;;;;4993626;28;20022;-74
2022/09/04 00:34:41;;;;;;;4.50;0.98;;;;;;;;;;4994636;28;20027;-67
2022/09/04 00:37:12;;;;;;;6.28;1.23;;;;;;;;;;4995477;28;20019;-69
2022/09/04 00:39:59;;;;;;;7.72;0.70;;;;;;;;;;4995510;28;20110;-68
2022/09/04 00:42:26;;;;;;;6.68;1.08;;;;;;;;;;4991256;28;20030;-69
2022/09/04 00:44:59;;;;;;;5.00;1.20;;;;;;;;;;4994864;28;20025;-68
2022/09/04 00:47:44;;;;;;;5.03;0.77;;;;;;;;;;4993523;28;20030;-68
2022/09/04 00:50:17;;;;;;;4.15;0.98;;;;;;;;;;4995358;28;20022;-69
2022/09/04 00:53:00;;;;;;;5.90;0.70;;;;;;;;;;4995152;28;20023;-68
2022/09/04 00:55:36;;;;;;;5.18;1.02;;;;;;;;;;4995228;28;20018;-68
2022/09/04 00:58:21;;;;;;;6.00;1.08;;;;;;;;;;4994803;28;20023;-69
2022/09/04 01:00:49;;;;;;;6.05;1.38;;;;;;;;;;4995052;28;20026;-68
2022/09/04 01:03:16;;;;;;;10.07;1.23;;;;;;;;;;4994709;28;20144;-68
2022/09/04 01:05:54;;;;;;;5.10;0.98;;;;;;;;;;4994418;28;20048;-68
2022/09/04 01:08:39;;;;;;;4.70;0.88;;;;;;;;;;4994036;28;20018;-68
2022/09/04 01:11:25;;;;;;;4.68;1.00;;;;;;;;;;4994575;28;20499;-68
2022/09/04 01:13:52;;;;;;;7.88;1.35;;;;;;;;;;4994442;28;20134;-68
2022/09/04 01:16:27;;;;;;;7.15;1.02;;;;;;;;;;4994775;28;20382;-68
2022/09/04 01:19:01;;;;;;;4.88;0.95;;;;;;;;;;4994490;28;20034;-67
2022/09/04 01:21:46;;;;;;;4.20;0.90;;;;;;;;;;4994398;28;20482;-67
2022/09/04 01:24:29;;;;;;;8.00;1.88;;;;;;;;;;4993976;28;20438;-69
2022/09/04 01:27:02;;;;;;;6.47;1.20;;;;;;;;;;4993421;28;20014;-69
2022/09/04 01:29:41;;;;;;;7.72;1.40;;;;;;;;;;4994577;28;20022;-69
2022/09/04 01:32:08;;;;;;;10.18;2.33;;;;;;;;;;4994103;28;20091;-69
2022/09/04 01:34:35;;;;;;;4.80;0.90;;;;;;;;;;4993890;28;20422;-69
2022/09/04 01:37:15;;;;;;;7.22;0.90;;;;;;;;;;4994227;28;20037;-68
2022/09/04 01:39:44;;;;;;;4.40;0.85;;;;;;;;;;4993930;28;20072;-67
2022/09/04 01:42:24;;;;;;;4.20;0.80;;;;;;;;;;4994302;28;20490;-68
2022/09/04 01:44:51;;;;;;;7.10;0.85;;;;;;;;;;4994248;28;20023;-67
2022/09/04 01:47:18;;;;;;;4.28;0.80;;;;;;;;;;4994222;28;20022;-68
2022/09/04 01:49:53;;;;;;;4.38;0.73;;;;;;;;;;4993823;28;20383;-67
2022/09/04 01:52:39;;;;;;;6.28;1.52;;;;;;;;;;4994033;28;20096;-67
2022/09/04 01:55:13;;;;;;;5.03;0.70;;;;;;;;;;4993319;28;20018;-68
2022/09/04 01:57:50;;;;;;;6.38;1.23;;;;;;;;;;4992445;28;20502;-67
2022/09/04 02:00:21;;;;;;;2.00;0.70;;;;;;;;;;4992323;28;20030;-68
2022/09/04 02:02:54;;;;;;;5.55;0.82;;;;;;;;;;4994070;28;20018;-67
2022/09/04 02:05:29;;;;;;;6.20;1.10;;;;;;;;;;4993470;28;20045;-68
2022/09/04 02:08:15;;;;;;;6.22;1.13;;;;;;;;;;4993845;28;20494;-68
2022/09/04 02:10:57;;;;;;;5.32;1.10;;;;;;;;;;4993501;28;20076;-67
2022/09/04 02:13:32;;;;;;;9.10;1.25;;;;;;;;;;4991973;28;20470;-67
2022/09/04 02:16:07;;;;;;;9.00;1.35;;;;;;;;;;4992043;28;20022;-67
2022/09/04 02:18:47;;;;;;;5.57;1.30;;;;;;;;;;4993902;28;20019;-68
2022/09/04 02:21:14;;;;;;;4.88;1.00;;;;;;;;;;4993352;28;20053;-67
2022/09/04 02:23:45;;;;;;;4.22;0.85;;;;;;;;;;4993507;28;20026;-67
2022/09/04 02:26:29;;;;;;;5.60;0.95;;;;;;;;;;4993613;28;20026;-67
2022/09/04 02:28:56;;;;;;;5.90;1.05;;;;;;;;;;4992252;28;20026;-70
2022/09/04 02:31:30;;;;;;;5.65;0.80;;;;;;;;;;4992827;28;20038;-68
2022/09/04 02:34:21;;;;;;;5.55;1.02;;;;;;;;;;4990799;28;20030;-67
2022/09/04 02:37:13;;;;;;;7.07;0.88;;;;;;;;;;4993736;28;20030;-68
2022/09/04 02:39:46;;;;;;;6.32;1.02;;;;;;;;;;4993436;28;20031;-68
2022/09/04 02:42:18;;;;;;;4.00;0.82;;;;;;;;;;4993249;28;20033;-67
2022/09/04 02:45:00;;;;;;;5.53;0.88;;;;;;;;;;4992029;28;20046;-69
2022/09/04 02:47:45;;;;;;;5.68;1.75;;;;;;;;;;4993191;28;20406;-68
2022/09/04 02:50:22;;;;;;;7.47;1.30;;;;;;;;;;4993615;28;20030;-68
2022/09/04 02:52:49;;;;;;;6.18;1.15;;;;;;;;;;4997384;28;20023;-68
2022/09/04 02:55:17;;;;;;;5.05;1.00;;;;;;;;;;4997296;28;20022;-68
2022/09/04 02:57:46;;;;;;;6.22;1.00;;;;;;;;;;4997129;28;20029;-67
2022/09/04 03:00:18;;;;;;;6.50;1.02;;;;;;;;;;4997182;28;20121;-69
2022/09/04 03:02:51;;;;;;;4.68;0.88;;;;;;;;;;4995710;28;20027;-67
2022/09/04 03:05:24;;;;;;;6.47;1.20;;;;;;;;;;4996888;28;20043;-68
2022/09/04 03:08:15;;;;;;;9.15;1.35;;;;;;;;;;4996800;28;20073;-68
2022/09/04 03:10:42;;;;;;;7.90;1.20;;;;;;;;;;4996989;28;20027;-69
2022/09/04 03:13:14;;;;;;;4.70;0.98;;;;;;;;;;4996894;28;20029;-69
2022/09/04 03:15:44;;;;;;;4.43;1.00;;;;;;;;;;4996777;28;20037;-69
2022/09/04 03:18:22;;;;;;;7.47;0.93;;;;;;;;;;4996680;28;20375;-69
2022/09/04 03:21:16;;;;;;;6.97;1.30;;;17.20;99.90;;;;;;4996883;28;20038;-69
2022/09/04 03:23:52;;;;;;;5.25;0.98;;;17.10;99.90;;;;;;4996816;28;20080;-69
2022/09/04 03:26:31;;;;;;;6.88;1.10;;;17.20;99.90;;;;;;4996213;28;20093;-69
2022/09/04 03:29:07;;;;;;;4.53;1.05;;;17.00;99.90;;;;;;4995274;28;20023;-68
2022/09/04 03:31:57;;;;;;;4.35;1.02;;;16.80;99.90;;;;;;4996602;28;20022;-68
2022/09/04 03:34:33;;;;;;;7.03;1.23;;;16.80;99.90;;;;;;4995218;28;20031;-69
2022/09/04 03:37:16;;;;;;;7.28;1.15;;;16.90;99.90;;;;;;4996342;28;20022;-69
2022/09/04 03:39:46;;;;;;;4.43;1.10;;;16.80;99.90;;;;;;4996584;28;20057;-69
2022/09/04 03:42:28;;;;;;;6.35;1.15;;;16.30;99.90;;;;;;4995663;28;20018;-68
2022/09/04 03:45:24;;;;;;;7.47;1.60;;;16.00;99.90;;;;;;4996444;28;20018;-69
2022/09/04 03:48:00;;;;;;;10.43;2.40;;;15.90;99.90;;;;;;4980680;28;20093;-69
2022/09/04 03:50:48;;;;;;;8.80;1.50;;;15.90;99.90;;;;;;4996154;28;20026;-69
2022/09/04 03:53:44;;;;;;;8.20;1.23;;;15.90;99.90;;;;;;4995979;28;20051;-69
2022/09/04 03:56:14;;;;;;;6.15;1.17;;;16.40;99.90;;;;;;4994827;28;20026;-70
2022/09/04 03:59:03;;;;;;;6.88;1.33;;;16.80;99.90;;;;;;4995002;28;20026;-69
2022/09/04 04:01:41;;;;;;;4.68;0.88;;;17.00;99.90;;;;;;4994223;28;20034;-70
2022/09/04 04:04:33;;;;;;;9.07;1.67;;;17.00;99.90;;;;;;4994328;28;20018;-68
2022/09/04 04:07:22;;;;;;;10.70;1.70;;;16.60;99.90;;;;;;4994020;28;20125;-69
2022/09/04 04:10:02;;;;;;;10.93;1.48;;;15.60;99.90;;;;;;4996102;28;20050;-68
2022/09/04 04:13:03;;;;;;;8.75;1.58;;;15.10;99.90;;;;;;4995782;28;20026;-68
2022/09/04 04:15:50;;;;;;;;;;;15.00;99.90;;;;;;4996152;28;20207;-68
2022/09/04 04:18:47;;;;;;;9.20;1.17;;;14.80;99.90;;;;;;4984577;28;19906;-68
2022/09/04 04:21:29;;;;;;;8.93;1.85;;;14.40;99.90;;;;;;4995663;28;20030;-68
2022/09/04 04:24:08;;;;;;;8.13;1.55;;;14.30;99.90;;;;;;4995251;28;20023;-68
2022/09/04 04:26:48;;;;;;;8.57;1.30;;;14.40;99.90;;;;;;4995903;28;20023;-69
2022/09/04 04:29:35;;;;;;;6.07;1.60;;;14.40;99.90;;;;;;4994147;28;20394;-68
2022/09/04 04:32:14;;;;;;;7.70;1.15;;;14.60;99.90;;;;;;4995927;28;20050;-68
2022/09/04 04:34:47;;;;;;;5.57;1.00;;;14.50;99.90;;;;;;4994019;28;20054;-68
2022/09/04 04:37:42;;;;;;;5.05;0.90;;;14.30;99.90;;;;;;4995354;28;20089;-68
2022/09/04 04:40:14;;;;;;;7.65;1.08;;;14.10;99.90;;;;;;4993773;28;20030;-68
2022/09/04 04:42:51;;;;;;;3.45;0.77;;;14.20;99.90;;;;;;4995483;28;20014;-68
2022/09/04 04:45:51;;;;;;;4.30;1.02;;;14.20;99.90;;;;;;4995132;28;20021;-67
2022/09/04 04:48:36;;;;;;;6.60;1.25;;;14.30;99.90;;;;;;4993867;28;20026;-67
2022/09/04 04:51:19;;;;;;;6.60;1.15;;;14.50;99.90;;;;;;4995438;28;20022;-66
2022/09/04 04:54:01;;;;;;;8.30;1.70;;;14.60;99.90;;;;;;4994844;28;20022;-68
2022/09/04 04:57:04;;;;;;;6.75;1.45;;;14.80;99.90;;;;;;4994695;28;20053;-67
2022/09/04 05:00:06;;;;;;;7.65;1.85;;;14.80;99.90;;;;;;4995066;28;20022;-68
2022/09/04 05:03:05;;;;;;;10.73;1.80;;;14.80;99.90;;;;;;4973164;28;20037;-67
2022/09/04 05:06:12;;;;;;;10.95;2.05;;;14.80;99.90;;;;;;4994410;28;20053;-67
2022/09/04 05:08:59;;;;;;;9.18;2.15;;;14.70;99.90;;;;;;4994684;28;20478;-68
2022/09/04 05:12:03;;;;;;;8.77;2.00;;;14.70;99.90;;;;;;4994660;28;20050;-68
2022/09/04 05:14:39;;;;;;;9.68;1.90;;;14.50;99.90;;;;;;4992657;28;20069;-68
2022/09/04 05:17:43;;;;;;;11.52;2.83;;;14.40;99.90;;;;;;4993543;28;20022;-68
2022/09/04 05:20:29;;;;;;;9.48;1.85;;;14.40;99.90;;;;;;4994131;28;20493;-68
2022/09/04 05:23:32;;;;;;;11.75;2.00;;;14.60;99.90;;;;;;4994382;28;20479;-68
2022/09/04 05:26:11;;;;;;;8.35;1.92;;;14.80;99.90;;;;;;4994120;28;20026;-69
2022/09/04 05:29:02;;;;;;;8.13;1.60;;;14.70;99.90;;;;;;4992708;28;20028;-68
2022/09/04 05:31:34;;;;;;;;;;;14.70;99.90;;;;;;4994619;28;20030;-68
2022/09/04 05:34:32;;;;;;;7.70;1.30;;;14.60;99.90;;;;;;4991379;28;19906;-68
2022/09/04 05:37:21;;;;;;;11.35;2.33;;;14.40;99.90;;;;;;4984474;28;20065;-69
2022/09/04 05:40:26;;;;;;;7.72;1.70;;;14.30;99.90;;;;;;4991966;28;20102;-68
2022/09/04 05:43:21;;;;;;;7.32;1.40;;;14.30;99.90;;;;;;4992415;28;20084;-67
2022/09/04 05:46:29;;;;;;;8.13;1.40;;;14.40;99.90;;;;;;4993861;28;20022;-68
2022/09/04 05:49:21;;;;;;;10.10;1.83;;;14.60;99.90;;;;;;4992627;28;20085;-68
2022/09/04 05:52:26;;;;;;;10.05;2.05;;;14.60;99.90;;;;;;4993701;28;20076;-68
2022/09/04 05:55:03;;;;;;;11.13;1.77;;;14.70;99.90;;;;;;4991639;28;20037;-69
2022/09/04 05:57:48;;;;;;;10.73;2.35;;;14.60;99.90;;;;;;4990441;28;20406;-69
2022/09/04 06:00:18;;;;;;;9.68;2.15;;;14.70;99.90;;;;;;4990451;28;20042;-68
2022/09/04 06:03:04;;;;;;;10.77;2.13;;;14.80;99.90;;;;;;4990471;28;20395;-68
2022/09/04 06:05:40;;;;;;;10.65;1.95;;;15.00;99.90;;;;;;4990259;28;20050;-68
2022/09/04 06:08:26;;;;;;;9.27;1.50;;;15.00;99.90;;;;;;4991196;28;20121;-67
2022/09/04 06:11:19;;;;;;;7.60;1.65;;;15.00;99.90;;;;;;4992377;28;20034;-68
2022/09/04 06:14:07;;;;;;;5.97;1.40;;;15.00;99.90;;;;;;4985449;28;20050;-67
2022/09/04 06:17:07;;;;;;;8.27;1.50;;;15.10;99.90;;;;;;4993541;28;20418;-67
2022/09/04 06:20:09;;;;;;;10.07;2.20;;;15.20;99.90;;;;;;4992307;28;20038;-68
2022/09/04 06:23:10;;;;;;;10.57;2.35;;;15.30;99.90;;;;;;4993498;28;20031;-69
2022/09/04 06:25:37;;;;;;;8.18;1.00;;;15.30;99.90;;;;;;4991566;28;20034;-68
2022/09/04 06:28:16;;;;;;;7.85;1.17;;;15.30;99.90;;;;;;4992028;28;20052;-69
2022/09/04 06:31:11;;;;;;;6.60;1.17;;;15.30;99.90;;;;;;4993778;28;20038;-68
2022/09/04 06:33:41;;;;;;;4.15;1.08;;;15.20;99.90;;;;;;4993275;28;20025;-68
2022/09/04 06:36:44;;;;;;;8.07;1.40;;;15.30;99.90;;;;;;4993396;28;20022;-68
2022/09/04 06:39:34;;;;;;;6.68;1.42;;;15.20;99.90;;;;;;4993627;28;20022;-67
2022/09/04 06:42:33;;;;;;;7.40;1.30;;;15.20;99.90;;;;;;4993147;28;20050;-68
2022/09/04 06:45:37;;;;;;;5.82;1.02;;;15.20;99.90;;;;;;4992789;28;20053;-68
2022/09/04 06:48:32;;;;;;;11.75;1.73;;;15.10;99.90;;;;;;4993505;28;20081;-68
2022/09/04 06:51:42;;;;;;;10.30;2.08;;;15.10;99.90;;;;;;4992861;28;20033;-67
2022/09/04 06:54:21;;;;;;;8.20;1.75;;;15.00;99.90;;;;;;4983578;28;20034;-68
2022/09/04 06:56:54;;;;;;;8.35;1.48;;;15.10;99.90;;;;;;4993309;28;20022;-68
2022/09/04 06:59:56;;;;;;;7.88;1.40;;;15.10;99.90;;;;;;4993181;28;20026;-68
2022/09/04 07:02:33;;;;;;;8.32;1.60;;;15.10;99.90;;;;;;4981296;28;20105;-68
2022/09/04 07:05:27;;;;;;;10.00;1.50;;;15.10;99.90;;;;;;4991772;28;20050;-67
2022/09/04 07:08:25;;;;;;;11.05;2.08;;;15.10;99.90;;;;;;4993061;28;20049;-68
2022/09/04 07:11:13;;;;;;;5.85;1.42;;;15.00;99.90;;;;;;4991827;28;20057;-67
2022/09/04 07:14:15;;;;;;;7.25;1.13;;;14.70;99.90;;;;;;4993327;28;20045;-68
2022/09/04 07:16:55;;;;;;;5.63;1.00;;;14.50;99.90;;;;;;4991853;28;20030;-68
2022/09/04 07:19:37;;;;;;;7.72;1.30;;;14.40;99.90;;;;;;4992968;28;20045;-68
2022/09/04 07:22:16;;;;;;;5.90;1.00;;;14.30;99.90;;;;;;4993079;28;20029;-68
2022/09/04 07:25:00;;;;;;;5.68;1.30;;;14.20;99.90;;;;;;4992951;28;20014;-69
2022/09/04 07:28:05;;;;;;;4.45;1.00;;;14.20;99.90;;;;;;4992957;28;20030;-69
2022/09/04 07:30:47;;;;;;;4.05;0.85;;;14.20;99.90;;;;;;4992844;28;20097;-69
2022/09/04 07:33:31;;;;;;;4.53;1.23;;;14.10;99.90;;;;;;4992901;28;20030;-69
2022/09/04 07:36:24;;;;;;;5.75;0.93;;;14.10;99.90;;;;;;4992935;28;20030;-69
2022/09/04 07:38:56;;;;;;;4.55;1.17;;;14.00;99.90;;;;;;4995094;28;20037;-69
2022/09/04 07:41:34;;;;;;;6.15;1.42;;;14.00;99.90;;;;;;4996828;28;20097;-69
2022/09/04 07:44:26;;;;;;;6.85;1.50;;;14.00;99.90;;;;;;4996341;28;20037;-70
2022/09/04 07:47:11;;;;;;;5.63;1.20;;;13.90;99.90;;;;;;4996361;28;20022;-69
2022/09/04 07:49:53;;;;;;;6.22;1.38;;;13.90;99.90;;;;;;4996167;28;20019;-70
2022/09/04 07:52:57;;;;;;;7.30;1.50;;;13.90;99.90;;;;;;4994848;28;20037;-70
2022/09/04 07:55:56;;;;;;;7.97;1.85;;;13.80;99.90;;;;;;4996082;28;20026;-70
2022/09/04 07:59:08;;;;;;;9.40;2.15;;;13.80;99.90;;;;;;4973271;28;20042;-70
2022/09/04 08:01:55;;;;;;;6.45;1.90;;;13.60;99.90;;;;;;4995994;28;20022;-71
2022/09/04 08:04:59;;;;;;;9.43;1.88;;;13.50;99.90;;;;;;4995626;28;20034;-70
2022/09/04 08:07:47;;;;;;;8.68;2.55;;;13.30;99.90;;;;;;4996019;28;20380;-69
2022/09/04 08:10:23;;;;;;;7.55;2.67;;;13.30;99.90;;;;;;4996027;28;20097;-70
2022/09/04 08:12:56;;;;;;;9.13;3.30;;;13.30;99.90;;;;;;4996100;28;20034;-69
2022/09/04 08:15:46;;;;;;;8.07;2.58;;;13.30;99.90;;;;;;4996114;28;20101;-68
2022/09/04 08:18:34;;;;;;;8.73;2.70;;;13.40;99.90;;;;;;4995699;28;20037;-70
2022/09/04 08:21:08;;;;;;;8.32;1.85;;;13.40;99.90;;;;;;4994400;28;20482;-70
2022/09/04 08:24:03;;;;;;;7.38;1.33;;;13.50;99.90;;;;;;4995682;28;20015;-68
2022/09/04 08:27:08;;;;;;;6.45;1.50;;;13.30;99.90;;;;;;4995653;28;20093;-69
2022/09/04 08:29:56;;;;;;;8.48;1.90;;;13.20;99.90;;;;;;4994364;28;20117;-68
2022/09/04 08:32:53;;;;;;;6.40;1.38;;;13.20;99.90;;;;;;4995582;28;20101;-68
2022/09/04 08:35:40;;;;;;;6.60;1.40;;;13.10;99.90;;;;;;4995534;28;20022;-68
2022/09/04 08:38:19;;;;;;;11.15;1.83;;;13.00;99.90;;;;;;4995741;28;20025;-68
2022/09/04 08:41:01;;;;;;;10.95;2.33;;;13.00;99.90;;;;;;4993968;28;20096;-69
2022/09/04 08:43:58;;;;;;;5.03;1.30;;;13.00;99.90;;;;;;4994096;28;20030;-69
2022/09/04 08:46:47;;;;;;;7.15;1.90;;;13.00;99.90;;;;;;4995224;28;20026;-68
2022/09/04 08:49:52;;;;;;;7.72;1.83;;;12.90;99.90;;;;;;4994536;28;20023;-70
2022/09/04 08:52:56;;;;;;;4.75;1.70;;;12.80;99.90;;;;;;4993761;28;20026;-69
2022/09/04 08:55:46;;;;;;;8.85;2.13;;;12.80;99.90;;;;;;4993792;28;20038;-69
2022/09/04 08:58:19;;;;;;;7.57;2.23;;;12.70;99.90;;;;;;4995438;28;20479;-68
2022/09/04 09:01:25;;;;;;;5.57;1.67;;;12.60;99.90;;;;;;4994909;28;20088;-68
2022/09/04 09:04:19;;;;;;;6.07;2.17;;;12.50;99.90;;;;;;4973379;28;20023;-70
2022/09/04 09:07:08;;;;;;;10.10;2.90;;;12.50;99.90;;;;;;4994623;28;20606;-68
2022/09/04 09:10:08;;;;;;;10.63;4.25;;;12.50;99.90;;;;;;4994822;28;20046;-69
2022/09/04 09:12:57;;;;;;;13.30;4.30;;;12.50;99.90;;;;;;4994934;28;20490;-69
2022/09/04 09:15:42;;;;;;;10.82;3.45;;;12.50;99.90;;;;;;4993441;28;20026;-69
2022/09/04 09:18:36;;;;;;;12.23;2.78;;;12.40;99.90;;;;;;4993480;28;20030;-68
2022/09/04 09:21:30;;;;;;;8.75;3.08;;;12.40;99.90;;;;;;4994558;28;20442;-68
2022/09/04 09:24:38;;;;;;;9.05;3.85;;;12.40;99.90;;;;;;4994529;28;20019;-68
2022/09/04 09:27:18;;;;;;;10.10;3.50;;;12.40;99.90;;;;;;4972937;28;20102;-68
2022/09/04 09:30:07;;;;;;;8.50;3.13;;;12.40;99.90;;;;;;4973263;28;20023;-68
2022/09/04 09:33:11;;;;;;;8.55;2.85;;;12.50;99.90;;;;;;4988408;28;20080;-68
2022/09/04 09:36:05;;;;;;;9.13;3.13;;;12.50;99.90;;;;;;4992975;28;20121;-69
2022/09/04 09:39:05;;;;;;;9.32;2.88;;;12.60;99.90;;;;;;4994368;28;20022;-68
2022/09/04 09:42:04;;;;;;;7.47;1.73;;;12.70;99.90;;;;;;4994504;28;20140;-68
2022/09/04 09:44:41;;;;;;;4.28;1.40;;;12.60;99.90;;;;;;4991197;28;20065;-68
2022/09/04 09:47:32;;;;;;;6.75;1.60;;;12.60;99.90;;;;;;4994264;28;20049;-68
2022/09/04 09:50:13;;;;;;;5.38;1.30;;;12.80;99.90;;;;;;4994000;28;20029;-68
2022/09/04 09:53:18;;;;;;;6.13;0.98;;;12.80;99.90;;;;;;4994209;28;20085;-68
2022/09/04 09:56:03;;;;;;;5.95;0.98;;;12.80;99.90;;;;;;4987355;28;20057;-67
2022/09/04 09:59:00;;;;;;;4.13;1.10;;;12.80;99.90;;;;;;4994226;28;20022;-68
2022/09/04 10:02:07;;;;;;;5.75;1.70;;;12.80;99.90;;;;;;4991854;28;20026;-69
2022/09/04 10:05:00;;;;;;;10.43;2.80;;;12.90;99.90;;;;;;4994076;28;20018;-69
2022/09/04 10:07:45;;;;;;;9.07;2.30;;;12.90;99.90;;;;;;4994016;28;20034;-68
2022/09/04 10:10:27;;;;;;;9.02;2.72;;;12.90;99.90;;;;;;4994013;28;20030;-69
2022/09/04 10:13:22;;;;;;;11.07;3.28;;;12.90;99.90;;;;;;4994478;28;20056;-69
2022/09/04 10:16:08;;;;;;;8.95;3.22;;;12.80;99.90;;;;;;4992382;28;20034;-69
2022/09/04 10:19:15;;;;;;;9.38;2.70;;;12.70;99.90;;;;;;4994148;28;20032;-69
2022/09/04 10:22:11;;;;;;;11.35;2.78;;;12.60;99.90;;;;;;4993672;28;20026;-69
2022/09/04 10:24:44;;;;;;;8.55;2.10;;;12.60;99.90;;;;;;4992530;28;20026;-68
2022/09/04 10:27:33;;;;;;;7.90;2.78;;;12.60;99.90;;;;;;4993691;28;20414;-67
2022/09/04 10:30:17;;;;;;;9.90;3.05;;;12.50;99.90;;;;;;4992323;28;20109;-69
2022/09/04 10:33:06;;;;;;;8.05;2.55;;;12.60;99.90;;;;;;4993638;28;20018;-70
2022/09/04 10:35:51;;;;;;;9.18;2.45;;;12.60;99.90;;;;;;4993616;28;20053;-69
2022/09/04 10:41:52;;;;;;;9.18;2.83;;;12.50;99.90;;;;;;4993584;28;20109;-69
2022/09/04 10:44:39;;;;;;;7.10;1.83;;;12.50;99.90;;;;;;4993604;28;20018;-68
2022/09/04 10:47:37;;;;;;;6.82;1.90;;;12.40;99.90;;;;;;4992426;28;20058;-68
2022/09/04 10:50:22;;;;;;;7.53;2.08;;;12.30;99.90;;;;;;4990375;28;20038;-68
2022/09/04 10:53:24;;;;;;;6.30;1.80;;;12.30;99.90;;;;;;4993999;28;20073;-68
2022/09/04 10:56:18;;;;;;;9.05;1.98;;;12.30;99.90;;;;;;4990442;28;20035;-69
2022/09/04 10:59:10;;;;;;;8.82;2.75;;;12.20;99.90;;;;;;4993997;28;20069;-69
2022/09/04 11:02:00;;;;;;;10.15;2.33;;;12.20;99.90;;;;;;4992102;28;20096;-69
2022/09/04 11:05:16;;;;;;;5.97;1.67;;;12.20;99.90;;;;;;4993479;28;20018;-69
2022/09/04 11:07:57;;;;;;;10.82;2.20;;;12.10;99.90;;;;;;4977499;28;20135;-69
2022/09/04 11:10:30;;;;;;;6.25;2.10;;;12.10;99.90;;;;;;4993380;28;20038;-69
2022/09/04 11:13:06;;;;;;;10.98;2.72;;;12.00;99.90;;;;;;4994376;28;20041;-68
2022/09/04 11:15:49;;;;;;;10.77;2.88;;;11.90;99.90;;;;;;4997330;28;20398;-68
2022/09/04 11:18:48;;;;;;;7.45;1.80;;;11.90;99.90;;;;;;4996964;28;20022;-67
2022/09/04 11:21:28;;;;;;;5.38;1.85;;;11.80;99.90;;;;;;4996907;28;20077;-67
2022/09/04 11:24:22;;;;;;;6.28;1.70;;;11.80;99.90;;;;;;4996931;28;20118;-68
2022/09/04 11:27:19;;;;;;;8.88;1.83;;;11.80;99.90;;;;;;4996948;28;20386;-68
2022/09/04 11:30:02;;;;;;;6.57;1.45;;;11.80;99.90;;;;;;4995658;28;20101;-68
2022/09/04 11:32:54;;;;;;;7.63;1.80;;;11.80;99.90;;;;;;4996821;28;20386;-68
2022/09/04 11:35:43;;;;;;;8.02;1.88;;;11.80;99.90;;;;;;4996803;28;20033;-68
2022/09/04 11:38:38;;;;;;;6.72;1.85;;;11.80;99.90;;;;;;4996731;28;20034;-68
2022/09/04 11:41:33;;;;;;;4.35;1.75;;;11.80;99.90;;;;;;4996432;28;20393;-68
2022/09/04 11:44:24;;;;;;;5.72;1.75;;;11.90;99.90;;;;;;4996695;28;20471;-68
2022/09/04 11:47:18;;;;;;;5.00;1.55;;;11.90;99.90;;;;;;4996630;28;20058;-67
2022/09/04 11:50:15;;;;;;;5.75;1.95;;;11.80;99.90;;;;;;4988348;28;20058;-67
2022/09/04 11:52:45;;;;;;;6.47;1.38;;;11.70;99.90;;;;;;4995151;28;20026;-67
2022/09/04 11:55:18;;;;;;;5.47;1.65;;;11.60;99.90;;;;;;4996820;28;20457;-67
2022/09/04 11:58:07;;;;;;;7.88;1.58;;;11.50;99.90;;;;;;4995107;28;20022;-67
2022/09/04 12:00:58;;;;;;;6.72;1.67;;;11.40;99.90;;;;;;4996230;28;20018;-67
2022/09/04 12:03:31;;;;;;;;;;;11.30;99.90;;;;;;4995503;28;20186;-67
2022/09/04 12:06:13;;;;;;;6.78;1.52;;;11.30;99.90;;;;;;4996152;28;19925;-68
2022/09/04 12:09:36;;;;;;;5.82;1.40;;;11.20;99.90;;;;;;4996144;28;20018;-67
2022/09/04 12:12:21;;;;;;;6.90;1.67;;;11.20;99.90;;;;;;4944185;28;20038;-67
2022/09/04 12:15:06;;;;;;;8.57;1.70;;;11.20;99.90;;;;;;4996062;28;20019;-67
2022/09/04 12:18:02;;;;;;;6.57;1.60;;;11.10;99.90;;;;;;4996167;28;20030;-67
2022/09/04 12:21:02;;;;;;;6.03;1.23;;;11.10;99.90;;;;;;4995789;28;20032;-67
2022/09/04 12:24:19;;;;;;;7.68;1.95;;;11.10;99.90;;;;;;4994619;28;20030;-67
2022/09/04 12:27:23;;;;;;;6.70;1.60;;;11.10;99.90;;;;;;4996029;28;20074;-68
2022/09/04 12:29:56;;;;;;;13.50;2.00;;;11.00;99.90;;;;;;4996083;28;20030;-67
2022/09/04 12:32:24;;;;;;;6.47;1.92;;;11.00;99.90;;;;;;4996141;28;20382;-68
2022/09/04 12:35:09;;;;;;;4.75;1.58;;;11.00;99.90;;;;;;4996236;28;20027;-68
2022/09/04 12:38:25;;;;;;;5.03;1.70;;;11.00;99.90;;;;;;4995763;28;20022;-67
2022/09/04 12:41:17;;;;;;;5.10;1.90;;;10.90;99.90;;;;;;4995377;28;20098;-67
2022/09/04 12:44:07;;;;;;;7.93;2.40;;;10.90;99.90;;;;;;4994288;28;20048;-67
2022/09/04 12:46:54;;;;;;;7.53;2.78;;;10.90;99.90;;;;;;4994065;28;20037;-68
2022/09/04 12:49:54;;;;;;;9.07;2.08;;;10.90;99.90;;;;;;4995592;28;20479;-68
2022/09/04 12:52:52;;;;;;;7.00;1.73;;;10.90;99.90;;;;;;4995469;28;20026;-68
2022/09/04 12:56:02;;;;;;;8.07;2.10;;;10.80;99.90;;;;;;4994001;28;20264;-67
2022/09/04 12:58:53;;;;;;;8.75;2.75;;;10.90;99.90;;;;;;4973636;28;20153;-67
2022/09/04 13:01:37;;;;;;;;;;;10.90;99.90;;;;;;4995379;28;20042;-67
2022/09/04 13:04:26;;;;;;;6.57;2.05;;;10.90;99.90;;;;;;4995015;28;19955;-67
2022/09/04 13:07:13;;;;;;;4.57;2.00;;;10.90;99.90;;;;;;4994867;28;20046;-68
2022/09/04 13:10:13;;;;;;;7.22;1.80;;;10.90;99.90;;;;;;4995244;28;20015;-67
2022/09/04 13:12:59;;;;;;;4.55;1.75;;;10.90;99.90;;;;;;4995523;28;20353;-67
2022/09/04 13:16:02;;;;;;;5.90;1.70;;;10.90;99.90;;;;;;4994981;28;20475;-67
2022/09/04 13:18:58;;;;;;;4.05;1.83;;;10.90;99.90;;;;;;4986998;28;20041;-67
2022/09/04 13:21:50;;;;;;;4.30;1.80;;;10.90;99.90;;;;;;4994763;28;20049;-68
2022/09/04 13:24:25;;;;;;;9.13;2.38;;;10.90;99.90;;;;;;4993391;28;20018;-68
2022/09/04 13:27:07;;;;;;;4.82;1.85;;;10.90;99.90;;;;;;4993310;28;20033;-68
2022/09/04 13:30:04;;;;;;;5.53;1.38;;;10.80;99.90;;;;;;4994571;28;20018;-68
2022/09/04 13:32:47;;;;;;;7.35;1.33;;;10.80;99.90;;;;;;4994513;28;20025;-68
2022/09/04 13:35:43;;;;;;;6.15;1.67;;;10.90;99.90;;;;;;4993070;28;20069;-67
2022/09/04 13:38:43;;;;;;;8.20;1.75;;;10.90;99.90;;;;;;4994555;28;20094;-67
2022/09/04 13:41:45;;;;;;;3.72;1.33;;;11.00;99.90;;;;;;4994807;28;20030;-67
2022/09/04 13:44:44;;;;;;;5.07;1.75;;;10.90;99.90;;;;;;4993138;28;20037;-67
2022/09/04 13:47:21;;;;;;;6.75;1.77;;;10.90;99.90;;;;;;4993015;28;20109;-67
2022/09/04 13:50:20;;;;;;;6.25;1.65;;;10.90;99.90;;;;;;4994555;28;20073;-68
2022/09/04 13:52:51;;;;;;;7.68;1.45;;;10.90;99.90;;;;;;4994260;28;20033;-68
2022/09/04 13:55:21;;;;;;;;;;;10.90;99.90;;;;;;4994501;28;20031;-68
2022/09/04 13:57:56;;;;;;;3.33;1.03;;;10.80;99.90;;;;;;4992908;28;19912;-68
2022/09/04 14:00:25;;;;;;;5.60;1.83;;;10.80;99.90;;;;;;4994210;28;20100;-67
2022/09/04 14:03:09;;;;;;;4.47;1.20;;;10.80;99.90;;;;;;4993995;28;20077;-67
2022/09/04 14:05:37;;;;;;;4.93;1.38;;;10.80;99.90;;;;;;4993918;28;20053;-67
2022/09/04 14:08:09;;;;;;;3.58;1.48;;;10.80;99.90;;;;;;4992818;28;20525;-68
2022/09/04 14:10:51;;;;;;;6.05;1.50;;;10.80;99.90;;;;;;4992732;28;20505;-68
2022/09/04 14:13:50;;;;;;;3.30;0.93;;;10.80;99.90;;;;;;4993839;28;20023;-68
2022/09/04 14:16:18;;;;;;;4.05;1.20;;;10.80;99.90;;;;;;4993880;28;20049;-68
2022/09/04 14:19:10;;;;;;;7.07;1.10;;;10.80;99.90;;;;;;4993890;28;20022;-68
2022/09/04 14:21:43;;;;;;;6.45;1.20;;;10.70;99.90;;;;;;4992642;28;20049;-68
2022/09/04 14:24:23;;;;;;;6.15;1.80;;;10.70;99.90;;;;;;4993806;28;20023;-67
2022/09/04 14:27:17;;;;;;;6.40;1.25;;;10.60;99.90;;;;;;4994145;28;20022;-67
2022/09/04 14:30:01;;;;;;;4.28;1.27;;;10.60;99.90;;;;;;4993660;28;20018;-67
2022/09/04 14:32:41;;;;;;;4.38;1.30;;;10.60;99.90;;;;;;4993748;28;20022;-67
2022/09/04 14:35:51;;;;;;;5.43;1.20;;;10.70;99.90;;;;;;4992447;28;20026;-67
2022/09/04 14:38:28;;;;;;;4.53;1.20;;;10.70;99.90;;;;;;4992635;28;20034;-67
2022/09/04 14:41:28;;;;;;;4.78;1.40;;;10.70;99.90;;;;;;4992268;28;20037;-68
2022/09/04 14:44:16;;;;;;;3.75;1.10;;;10.70;99.90;;;;;;4989697;28;20085;-67
2022/09/04 14:47:08;;;;;;;5.70;1.67;;;10.60;99.90;;;;;;4994216;28;20025;-68
2022/09/04 14:49:48;;;;;;;4.22;1.33;;;10.60;99.90;;;;;;4997853;28;20502;-70
2022/09/04 14:52:21;;;;;;;3.97;1.60;;;10.50;99.90;;;;;;4997691;28;20030;-67
2022/09/04 14:54:58;;;;;;;3.65;0.80;;;10.50;99.90;;;;;;4997857;28;20034;-66